Time;durP1;ratioP1;P1;durP2;ratioP2;P2;SDS_P1;SDS_P2;PMS_P1;PMS_P2;Temp;Humidity;BMP_temperature;BMP_pressure;BME280_temperature;BME280_humidity;BME280_pressure;Samples;Min_cycle;Max_cycle;Signal;HPM_P1;HPM_P2
2022/12/28 00:02:17;;;;;;;7.78;6.88;;;;;;;;;;10318913;28;20068;-60
2022/12/28 00:07:16;;;;;;;8.75;7.85;;;;;;;;;;10317840;28;20055;-60
2022/12/28 00:12:14;;;;;;;9.07;6.93;;;;;;;;;;10315676;28;20044;-60
2022/12/28 00:17:13;;;;;;;11.40;7.25;;;;;;;;;;10314294;28;20080;-61
2022/12/28 00:22:11;;;;;;;8.10;7.13;;;;;;;;;;10315304;28;20080;-61
2022/12/28 00:27:10;;;;;;;8.63;7.22;;;;;;;;;;10318674;28;20037;-61
2022/12/28 00:32:09;;;;;;;9.95;7.43;;;;;;;;;;10317612;28;20505;-61
2022/12/28 00:37:07;;;;;;;8.50;6.10;;;;;;;;;;10318285;28;20572;-61
2022/12/28 00:42:11;;;;;;;7.78;6.18;;;;;;;;;;10298956;28;20049;-61
2022/12/28 00:47:09;;;;;;;6.90;6.20;;;;;;;;;;10298842;28;20057;-61
2022/12/28 00:52:09;;;;;;;10.82;7.53;;;;;;;;;;10317779;28;20044;-61
2022/12/28 00:57:07;;;;;;;9.27;7.63;;;;;;;;;;10317731;28;20076;-61
2022/12/28 01:02:07;;;;;;;11.05;5.80;;;;;;;;;;10297830;28;20044;-61
2022/12/28 01:07:05;;;;;;;11.07;7.70;;;;;;;;;;10298302;28;20047;-61
2022/12/28 01:12:03;;;;;;;6.70;5.90;;;;;;;;;;10316423;28;20055;-61
2022/12/28 01:17:02;;;;;;;7.30;5.97;;;;;;;;;;10316689;28;20080;-60
2022/12/28 01:22:02;;;;;;;10.38;7.45;;;;;;;;;;10316190;28;20078;-58
2022/12/28 01:27:00;;;;;;;7.95;5.60;;;;;;;;;;10316294;28;20040;-61
2022/12/28 01:31:58;;;;;;;11.40;7.75;;;;;;;;;;10298031;28;20494;-61
2022/12/28 01:36:59;;;;;;;7.18;5.68;;;;;;;;;;10315750;28;20508;-61
2022/12/28 01:41:59;;;;;;;6.85;6.15;;;;;;;;;;10316081;28;20075;-61
2022/12/28 01:47:00;;;;;;;6.05;5.43;;;;;;;;;;10297257;28;20040;-61
2022/12/28 01:52:00;;;;;;;9.10;7.72;;;;;;;;;;10314538;28;20147;-61
2022/12/28 01:57:00;;;;;;;11.68;7.65;;;;;;;;;;10297967;28;20504;-61
2022/12/28 02:01:58;;;;;;;6.90;5.22;;;;;;;;;;10315860;28;20076;-60
2022/12/28 02:06:57;;;;;;;8.45;6.72;;;;;;;;;;10315649;28;20052;-61
2022/12/28 02:11:55;;;;;;;6.90;4.97;;;;;;;;;;10295502;28;20044;-61
2022/12/28 02:16:55;;;;;;;7.90;7.18;;;;;;;;;;10297033;28;20053;-60
2022/12/28 02:22:01;;;;;;;7.53;6.10;;;;;;;;;;10297643;28;20052;-61
2022/12/28 02:27:01;;;;;;;8.00;7.20;;;;;;;;;;10322925;28;20041;-60
2022/12/28 02:32:03;;;;;;;4.90;4.40;;;;;;;;;;10296705;28;20048;-61
2022/12/28 02:37:05;;;;;;;6.10;4.35;;;;;;;;;;10322701;28;20082;-60
2022/12/28 02:42:04;;;;;;;4.35;3.72;;;;;;;;;;10322461;28;20072;-61
2022/12/28 02:52:21;;;;;;;8.30;4.32;;;;;;;;;;10321420;28;20487;-61
2022/12/28 02:57:24;;;;;;;5.22;3.00;;;;;;;;;;10303455;28;20053;-59
2022/12/28 03:02:38;;;;;;;11.05;6.70;;;;;;;;;;10303146;28;20060;-59
2022/12/28 03:13:00;;;;;;;5.55;3.15;;;;;;;;;;10303391;28;20057;-60
2022/12/28 03:34:05;;;;;;;4.68;3.30;;;;;;;;;;10301843;28;20040;-60
2022/12/28 03:39:16;;;;;;;7.18;4.75;;;;;;;;;;10301985;28;20140;-60
2022/12/28 03:44:19;;;;;;;12.15;8.27;;;;;;;;;;10301641;28;20055;-59
2022/12/28 03:49:19;;;;;;;7.60;3.97;;;;;;;;;;10301283;28;20059;-60
2022/12/28 03:54:17;;;;;;;6.20;3.85;;;;;;;;;;10301416;28;20048;-60
2022/12/28 03:59:16;;;;;;;5.70;2.97;;;;;;;;;;10300874;28;20549;-60
2022/12/28 04:04:21;;;;;;;6.22;3.65;;;;;;;;;;10300939;28;20087;-60
2022/12/28 04:09:21;;;;;;;8.35;6.40;;;;;;;;;;10300332;28;20057;-60
2022/12/28 04:14:20;;;;;;;7.68;5.75;;;;;;;;;;10300273;28;20048;-60
2022/12/28 04:19:20;;;;;;;27.00;15.63;;;;;;;;;;10300220;28;20051;-60
2022/12/28 04:24:19;;;;;;;8.07;5.05;;;;;;;;;;10299711;28;20080;-60
2022/12/28 04:29:18;;;;;;;28.40;12.85;;;;;;;;;;10299849;28;20045;-59
2022/12/28 04:34:33;;;;;;;5.22;3.75;;;;;;;;;;10299535;28;20060;-60
2022/12/28 04:39:38;;;;;;;4.72;3.70;;;;;;;;;;10299478;28;20068;-60
2022/12/28 04:44:53;;;;;;;4.88;3.03;;;;;;;;;;10316999;28;20080;-60
2022/12/28 04:49:53;;;;;;;4.65;3.20;;;;;;;;;;10317454;28;20052;-59
2022/12/28 04:54:51;;;;;;;7.15;4.57;;;;;;;;;;10317937;28;20094;-60
2022/12/28 04:59:49;;;;;;;7.70;4.25;;;;;;;;;;10318015;28;20068;-61
2022/12/28 05:04:49;;;;;;;5.82;3.63;;;;;;;;;;10317471;28;20405;-60
2022/12/28 05:09:49;;;;;;;5.43;3.97;;;;;;;;;;10316867;28;20083;-61
2022/12/28 05:14:47;;;;;;;5.95;3.33;;;;;;;;;;10316732;28;20098;-60
2022/12/28 05:19:46;;;;;;;8.43;4.88;;;;;;;;;;10316286;28;20089;-59
2022/12/28 05:24:44;;;;;;;12.63;3.45;;;;;;;;;;10315976;28;20076;-60
2022/12/28 05:29:43;;;;;;;9.82;4.03;;;;;;;;;;10317038;28;20048;-60
2022/12/28 05:34:41;;;;;;;8.10;4.18;;;;;;;;;;10316156;28;20055;-59
2022/12/28 05:39:40;;;;;;;13.23;3.97;;;;;;;;;;10316720;28;20072;-59
2022/12/28 05:44:38;;;;;;;7.03;4.38;;;;;;;;;;10315354;28;20084;-60
2022/12/28 05:49:37;;;;;;;9.07;3.85;;;;;;;;;;10316028;28;20075;-59
2022/12/28 05:54:35;;;;;;;4.88;3.78;;;;;;;;;;10315620;28;20048;-59
2022/12/28 05:59:34;;;;;;;7.55;3.22;;;;;;;;;;10319765;28;20071;-59
2022/12/28 06:04:32;;;;;;;6.05;3.22;;;;;;;;;;10323188;28;20048;-61
2022/12/28 06:09:32;;;;;;;5.60;3.92;;;;;;;;;;10324369;28;20045;-59
2022/12/28 06:14:30;;;;;;;5.82;4.72;;;;;;;;;;10322820;28;20080;-59
2022/12/28 06:19:28;;;;;;;6.20;3.58;;;;;;;;;;10322478;28;20514;-59
2022/12/28 06:24:26;;;;;;;5.05;3.78;;;;;;;;;;10323668;28;20080;-59
2022/12/28 06:29:26;;;;;;;6.97;3.65;;;;;;;;;;10321965;28;20036;-60
2022/12/28 06:34:24;;;;;;;6.53;4.22;;;;;;;;;;10323326;28;20403;-59
2022/12/28 06:39:22;;;;;;;7.30;4.95;;;;;;;;;;10322667;28;20064;-59
2022/12/28 06:44:20;;;;;;;6.93;4.90;;;;;;;;;;10279788;28;20083;-60
2022/12/28 06:49:20;;;;;;;7.80;4.18;;;;;;;;;;10317351;28;20076;-59
2022/12/28 06:54:18;;;;;;;9.32;5.55;;;;;;;;;;10310890;28;20106;-60
2022/12/28 06:59:16;;;;;;;7.93;4.68;;;;;;;;;;10319192;28;20063;-60
2022/12/28 07:04:14;;;;;;;10.05;5.75;;;;;;;;;;10299703;28;20068;-60
2022/12/28 07:09:15;;;;;;;8.38;5.13;;;;;;;;;;10302774;28;20076;-60
2022/12/28 07:14:14;;;;;;;6.90;4.00;;;;;;;;;;10320978;28;20071;-61
2022/12/28 07:19:12;;;;;;;10.27;4.53;;;;;;;;;;10312384;28;20071;-61
2022/12/28 07:24:10;;;;;;;9.30;4.57;;;;;;;;;;10314882;28;20069;-61
2022/12/28 07:29:10;;;;;;;6.22;4.28;;;;;;;;;;10318002;28;20079;-59
2022/12/28 07:34:08;;;;;;;9.90;6.00;;;;;;;;;;10311733;28;20087;-59
2022/12/28 07:39:06;;;;;;;6.15;4.28;;;;;;;;;;10308923;28;20491;-60
2022/12/28 07:44:04;;;;;;;6.55;3.92;;;;;;;;;;10312815;28;20072;-62
2022/12/28 07:49:04;;;;;;;10.98;6.20;;;;;;;;;;10311208;28;20080;-60
2022/12/28 07:54:03;;;;;;;9.30;5.80;;;;;;;;;;10319048;28;20075;-64
2022/12/28 07:59:02;;;;;;;9.07;5.63;;;;;;;;;;10316201;28;20494;-61
2022/12/28 08:04:02;;;;;;;9.05;4.57;;;;;;;;;;10319126;28;20076;-60
2022/12/28 08:09:02;;;;;;;5.70;5.03;;;;;;;;;;10317253;28;20064;-61
2022/12/28 08:14:01;;;;;;;6.65;4.78;;;;;;;;;;10310401;28;20044;-62
2022/12/28 08:19:00;;;;;;;5.97;4.82;;;;;;;;;;10318222;28;20055;-60
2022/12/28 08:23:58;;;;;;;12.50;6.85;;;;;;;;;;10316834;28;20079;-61
2022/12/28 08:28:59;;;;;;;9.73;5.03;;;;;;;;;;10315977;28;20068;-61
2022/12/28 08:33:57;;;;;;;9.98;4.93;;;;;;;;;;10297748;28;20076;-60
2022/12/28 08:38:56;;;;;;;6.60;3.90;;;;;;;;;;10302792;28;20095;-60
2022/12/28 08:43:54;;;;;;;7.57;4.20;;;;;;;;;;10314828;28;20102;-60
2022/12/28 08:48:55;;;;;;;8.77;3.92;;;;;;;;;;10314351;28;20080;-60
2022/12/28 08:53:53;;;;;;;15.20;10.38;;;;;;;;;;10315156;28;20068;-60
2022/12/28 08:58:52;;;;;;;16.85;5.95;;;;;;;;;;10315206;28;20044;-60
2022/12/28 09:03:51;;;;;;;9.98;7.30;;;;;;;;;;10304508;28;20083;-59
2022/12/28 09:08:53;;;;;;;6.20;4.40;;;;;;;;;;10306343;28;20056;-60
2022/12/28 09:14:04;;;;;;;8.55;4.88;;;;;;;;;;10305609;28;20068;-61
2022/12/28 09:19:03;;;;;;;9.07;4.65;;;;;;;;;;10305085;28;20170;-59
2022/12/28 09:24:02;;;;;;;8.48;5.07;;;;;;;;;;10316438;28;20079;-59
2022/12/28 09:29:02;;;;;;;18.20;12.80;;;;;;;;;;10315398;28;20060;-59
2022/12/28 09:34:00;;;;;;;5.90;4.45;;;;;;;;;;10284362;28;20104;-59
2022/12/28 09:39:23;;;;;;;7.57;6.75;;;;;;;;;;10317053;28;20080;-60
2022/12/28 09:44:35;;;;;;;6.85;4.65;;;;;;;;;;10313507;28;20105;-60
2022/12/28 09:49:35;;;;;;;7.90;4.78;;;;;;;;;;10308707;28;20064;-59
2022/12/28 09:54:35;;;;;;;11.52;6.68;;;;;;;;;;10315088;28;20352;-59
2022/12/28 09:59:34;;;;;;;7.00;4.88;;;;;;;;;;10314129;28;20083;-60
2022/12/28 10:04:32;;;;;;;16.38;9.82;;;;;;;;;;10314596;28;20083;-58
2022/12/28 10:09:33;;;;;;;22.25;16.65;;;;;;;;;;10313421;28;20494;-61
2022/12/28 10:14:35;;;;;;;8.85;5.50;;;;;;;;;;10314884;28;20064;-60
2022/12/28 10:19:33;;;;;;;10.40;4.45;;;;;;;;;;10314869;28;20494;-60
2022/12/28 10:24:32;;;;;;;11.43;7.07;;;;;;;;;;10312043;28;20111;-61
2022/12/28 10:29:31;;;;;;;10.43;8.75;;;;;;;;;;10315058;28;20083;-60
2022/12/28 10:34:32;;;;;;;20.25;14.05;;;;;;;;;;10278510;28;20080;-61
2022/12/28 10:39:32;;;;;;;9.05;7.07;;;;;;;;;;10269513;28;20068;-61
2022/12/28 10:44:33;;;;;;;14.60;6.97;;;;;;;;;;10284848;28;20482;-60
2022/12/28 10:49:47;;;;;;;9.05;5.80;;;;;;;;;;10278434;28;20096;-60
2022/12/28 10:55:25;;;;;;;7.05;6.35;;;;;;;;;;10288268;28;20155;-60
2022/12/28 11:00:24;;;;;;;12.27;11.00;;;;;;;;;;10295758;28;20064;-61
2022/12/28 11:05:24;;;;;;;7.13;5.13;;;;;;;;;;10268683;28;20079;-59
2022/12/28 11:10:24;;;;;;;10.35;6.57;;;;;;;;;;10316733;28;20059;-60
2022/12/28 11:15:23;;;;;;;10.63;8.88;;;;;;;;;;10318472;28;20064;-60
2022/12/28 11:20:25;;;;;;;7.05;5.18;;;;;;;;;;10316653;28;20074;-60
2022/12/28 11:25:28;;;;;;;9.20;5.88;;;;;;;;;;10316667;28;20072;-60
2022/12/28 11:30:27;;;;;;;6.80;6.00;;;;;;;;;;10316350;28;20832;-59
2022/12/28 11:35:29;;;;;;;12.80;9.00;;;;;;;;;;10307110;28;20079;-60
2022/12/28 11:40:46;;;;;;;13.02;4.78;;;;;;;;;;10317640;28;20076;-59
2022/12/28 11:45:51;;;;;;;8.70;4.47;;;;;;;;;;10315626;28;20102;-60
2022/12/28 11:50:54;;;;;;;40.15;32.15;;;;;;;;;;10315223;28;20068;-58
2022/12/28 11:56:00;;;;;;;9.80;8.20;;;;;;;;;;10309465;28;20083;-58
2022/12/28 12:00:58;;;;;;;9.52;8.23;;;;;;;;;;10296108;28;20070;-58
2022/12/28 12:05:58;;;;;;;8.20;6.43;;;;;;;;;;10296725;28;20068;-58
2022/12/28 12:11:11;;;;;;;6.35;5.75;;;;;;;;;;10302632;28;20060;-60
2022/12/28 12:16:18;;;;;;;9.35;7.85;;;;;;;;;;10294196;28;20072;-60
2022/12/28 12:21:28;;;;;;;9.07;7.55;;;;;;;;;;10280934;28;20061;-60
2022/12/28 12:26:29;;;;;;;18.52;14.20;;;;;;;;;;10299313;28;20093;-58
2022/12/28 12:31:29;;;;;;;19.00;13.65;;;;;;;;;;10300666;28;20087;-57
2022/12/28 12:36:43;;;;;;;12.52;8.65;;;;;;;;;;10286996;28;20071;-58
2022/12/28 12:41:45;;;;;;;22.00;15.40;;;;;;;;;;10303446;28;20068;-58
2022/12/28 12:46:59;;;;;;;15.93;12.30;;;;;;;;;;10300407;28;20494;-61
2022/12/28 12:52:12;;;;;;;21.58;14.05;;;;;;;;;;10293154;28;20434;-60
2022/12/28 12:57:13;;;;;;;13.82;9.75;;;;;;;;;;10314427;28;20528;-59
2022/12/28 13:02:27;;;;;;;11.60;10.40;;;;;;;;;;10317090;28;20072;-60
2022/12/28 13:07:27;;;;;;;25.05;17.77;;;;;;;;;;10274345;28;20071;-58
2022/12/28 13:12:25;;;;;;;24.45;11.85;;;;;;;;;;10302234;28;20465;-60
2022/12/28 13:17:24;;;;;;;31.13;21.80;;;;;;;;;;10310084;28;20076;-59
2022/12/28 13:22:30;;;;;;;17.73;14.68;;;;;;;;;;10312343;28;20072;-59
2022/12/28 13:27:31;;;;;;;39.95;20.35;;;;;;;;;;10296077;28;20079;-60
2022/12/28 13:32:30;;;;;;;22.23;16.05;;;;;;;;;;10315754;28;20419;-59
2022/12/28 13:37:37;;;;;;;9.65;7.60;;;;;;;;;;10315943;28;20053;-59
2022/12/28 13:42:39;;;;;;;31.15;23.10;;;;;;;;;;10315899;28;20036;-58
2022/12/28 13:47:39;;;;;;;64.03;48.03;;;;;;;;;;10315543;28;20088;-60
2022/12/28 13:52:40;;;;;;;39.33;28.65;;;;;;;;;;10315593;28;20422;-60
2022/12/28 13:57:39;;;;;;;45.33;31.70;;;;;;;;;;10315039;28;20063;-60
2022/12/28 14:02:52;;;;;;;82.63;46.17;;;;;;;;;;10315730;28;20303;-60
2022/12/28 14:07:53;;;;;;;57.90;41.65;;;;;;;;;;10315631;28;20083;-60
2022/12/28 14:12:52;;;;;;;39.28;30.27;;;;;;;;;;10314725;28;20079;-60
2022/12/28 14:17:52;;;;;;;31.05;24.55;;;;;;;;;;10314902;28;20049;-62
2022/12/28 14:22:51;;;;;;;48.45;37.28;;;;;;;;;;10304861;28;20044;-62
2022/12/28 14:27:54;;;;;;;34.20;22.65;;;;;;;;;;10322798;28;20068;-61
2022/12/28 14:32:54;;;;;;;37.72;25.58;;;;;;;;;;10324013;28;20390;-61
2022/12/28 14:37:55;;;;;;;60.65;44.45;;;;;;;;;;10323049;28;20075;-61
2022/12/28 14:42:54;;;;;;;84.47;68.50;;;;;;;;;;10322968;28;20059;-61
2022/12/28 14:47:56;;;;;;;41.13;29.90;;;;;;;;;;10321448;28;20088;-60
2022/12/28 14:53:05;;;;;;;42.35;31.08;;;;;;;;;;10303808;28;20048;-59
2022/12/28 14:58:06;;;;;;;45.67;33.33;;;;;;;;;;10321755;28;20047;-59
2022/12/28 15:03:14;;;;;;;37.08;26.23;;;;;;;;;;10321027;28;20041;-59
2022/12/28 15:08:16;;;;;;;34.85;24.73;;;;;;;;;;10321405;28;20088;-59
2022/12/28 15:13:14;;;;;;;69.72;44.17;;;;;;;;;;10321470;28;20060;-60
2022/12/28 15:18:12;;;;;;;40.17;26.58;;;;;;;;;;10302327;28;20052;-60
2022/12/28 15:23:10;;;;;;;49.47;31.65;;;;;;;;;;10321248;28;20048;-59
2022/12/28 15:28:10;;;;;;;51.53;31.52;;;;;;;;;;10320804;28;20072;-59
2022/12/28 15:33:08;;;;;;;76.35;52.25;;;;;;;;;;10318970;28;20076;-59
2022/12/28 15:38:07;;;;;;;56.20;40.67;;;;;;;;;;10317362;28;20065;-59
2022/12/28 15:43:05;;;;;;;65.35;41.28;;;;;;;;;;10311118;28;20056;-60
2022/12/28 15:48:05;;;;;;;45.97;30.90;;;;;;;;;;10289570;28;20075;-60
2022/12/28 15:53:03;;;;;;;86.22;53.35;;;;;;;;;;10317313;28;20079;-59
2022/12/28 15:58:01;;;;;;;78.15;50.75;;;;;;;;;;10317637;28;20066;-59
2022/12/28 16:02:59;;;;;;;55.90;38.17;;;;;;;;;;10317233;28;20075;-58
2022/12/28 16:07:59;;;;;;;66.43;44.55;;;;;;;;;;10315563;28;20087;-60
2022/12/28 16:12:57;;;;;;;109.85;73.88;;;;;;;;;;10317163;28;20524;-59
2022/12/28 16:17:55;;;;;;;85.88;58.00;;;;;;;;;;10317089;28;20071;-59
2022/12/28 16:22:54;;;;;;;77.63;52.47;;;;;;;;;;10315942;28;20078;-59
2022/12/28 16:27:54;;;;;;;106.28;70.18;;;;;;;;;;10269073;28;20080;-59
2022/12/28 16:32:52;;;;;;;77.50;50.28;;;;;;;;;;10279105;28;20069;-58
2022/12/28 16:37:51;;;;;;;73.68;45.75;;;;;;;;;;10286748;28;20078;-59
2022/12/28 16:42:49;;;;;;;71.22;43.35;;;;;;;;;;10274090;28;20079;-58
2022/12/28 16:47:49;;;;;;;64.95;40.85;;;;;;;;;;10255082;28;20095;-60
2022/12/28 16:52:47;;;;;;;42.95;29.42;;;;;;;;;;10280817;28;20099;-59
2022/12/28 16:57:45;;;;;;;27.30;21.38;;;;;;;;;;10279229;28;20513;-58
2022/12/28 17:02:43;;;;;;;30.27;19.02;;;;;;;;;;10277260;28;20060;-57
2022/12/28 17:07:44;;;;;;;25.92;19.67;;;;;;;;;;10291402;28;20075;-57
2022/12/28 17:12:42;;;;;;;19.02;13.98;;;;;;;;;;10279487;28;20066;-56
2022/12/28 17:17:40;;;;;;;18.25;13.60;;;;;;;;;;10281476;28;20068;-60
2022/12/28 17:22:39;;;;;;;12.55;9.30;;;;;;;;;;10284958;28;20654;-57
2022/12/28 17:27:39;;;;;;;17.98;14.65;;;;;;;;;;10273989;28;20512;-58
2022/12/28 17:32:37;;;;;;;21.88;18.60;;;;;;;;;;10255027;28;20553;-59
2022/12/28 17:37:36;;;;;;;19.77;14.85;;;;;;;;;;10289809;28;20068;-58
2022/12/28 17:42:34;;;;;;;14.77;12.77;;;;;;;;;;10288969;28;20642;-59
2022/12/28 17:47:33;;;;;;;11.98;9.82;;;;;;;;;;10292144;28;20091;-59
2022/12/28 17:52:32;;;;;;;13.35;11.48;;;;;;;;;;10290335;28;20064;-60
2022/12/28 17:57:30;;;;;;;14.23;10.30;;;;;;;;;;10297352;28;20064;-57
2022/12/28 18:02:36;;;;;;;26.23;16.38;;;;;;;;;;10283505;28;20076;-60
2022/12/28 18:07:35;;;;;;;31.33;22.13;;;;;;;;;;10294886;28;20072;-58
2022/12/28 18:12:33;;;;;;;34.70;23.45;;;;;;;;;;10318243;28;20076;-57
2022/12/28 18:17:31;;;;;;;21.30;14.20;;;;;;;;;;10318829;28;20045;-58
2022/12/28 18:22:31;;;;;;;13.80;11.30;;;;;;;;;;10296111;28;20052;-59
2022/12/28 18:27:29;;;;;;;11.07;8.82;;;;;;;;;;10295596;28;20076;-55
2022/12/28 18:32:27;;;;;;;12.73;9.55;;;;;;;;;;10297449;28;21483;-60
2022/12/28 18:37:25;;;;;;;22.60;14.90;;;;;;;;;;10303113;28;20064;-58
2022/12/28 18:42:25;;;;;;;51.53;40.55;;;;;;;;;;10307499;28;20380;-59
2022/12/28 18:47:23;;;;;;;19.27;14.27;;;;;;;;;;10307633;28;20795;-58
2022/12/28 18:52:22;;;;;;;14.48;9.40;;;;;;;;;;10300127;28;20068;-57
2022/12/28 18:57:20;;;;;;;25.02;15.48;;;;;;;;;;10299716;28;20071;-59
2022/12/28 19:02:20;;;;;;;22.95;12.95;;;;;;;;;;10299090;28;20106;-59
2022/12/28 19:07:18;;;;;;;10.93;8.43;;;;;;;;;;10287314;28;20076;-59
2022/12/28 19:12:16;;;;;;;15.43;12.15;;;;;;;;;;10299368;28;20477;-59
2022/12/28 19:17:14;;;;;;;10.57;9.40;;;;;;;;;;10299268;28;20061;-57
2022/12/28 19:22:15;;;;;;;29.48;20.10;;;;;;;;;;10297681;28;20067;-57
2022/12/28 19:27:14;;;;;;;17.20;12.57;;;;;;;;;;10307683;28;20072;-58
2022/12/28 19:32:12;;;;;;;14.07;12.60;;;;;;;;;;10306949;28;20083;-54
2022/12/28 19:37:10;;;;;;;14.90;10.90;;;;;;;;;;10305577;28;20068;-58
2022/12/28 19:42:10;;;;;;;11.50;9.77;;;;;;;;;;10306075;28;20064;-57
2022/12/28 19:47:08;;;;;;;9.68;8.13;;;;;;;;;;10302303;28;20088;-57
2022/12/28 19:52:06;;;;;;;21.13;14.25;;;;;;;;;;10305418;28;20079;-59
2022/12/28 19:57:04;;;;;;;22.40;13.45;;;;;;;;;;10293497;28;20072;-59
2022/12/28 20:02:04;;;;;;;14.02;7.55;;;;;;;;;;10308390;28;20068;-59
2022/12/28 20:07:02;;;;;;;9.57;5.75;;;;;;;;;;10315301;28;20072;-59
2022/12/28 20:12:00;;;;;;;20.42;12.45;;;;;;;;;;10307274;28;20071;-58
2022/12/28 20:16:59;;;;;;;57.05;24.92;;;;;;;;;;10313424;28;20076;-61
2022/12/28 20:21:58;;;;;;;11.18;7.32;;;;;;;;;;10308576;28;20066;-59
2022/12/28 20:26:56;;;;;;;44.92;40.38;;;;;;;;;;10315975;28;20064;-60
2022/12/28 20:31:58;;;;;;;12.43;9.77;;;;;;;;;;10314523;28;20056;-60
2022/12/28 20:36:57;;;;;;;12.25;9.38;;;;;;;;;;10316053;28;20521;-60
2022/12/28 20:47:12;;;;;;;53.80;29.27;;;;;;;;;;10313565;28;20068;-60
2022/12/28 20:52:11;;;;;;;20.20;12.57;;;;;;;;;;10294238;28;20064;-60
2022/12/28 20:57:10;;;;;;;26.77;15.45;;;;;;;;;;10314602;28;20505;-61
2022/12/28 21:02:09;;;;;;;22.30;13.00;;;;;;;;;;10313970;28;20090;-59
2022/12/28 21:07:07;;;;;;;16.83;11.63;;;;;;;;;;10308180;28;20076;-59
2022/12/28 21:12:05;;;;;;;10.70;7.93;;;;;;;;;;10314566;28;20447;-59
2022/12/28 21:17:05;;;;;;;15.05;9.43;;;;;;;;;;10306324;28;20045;-60
2022/12/28 21:22:03;;;;;;;14.57;10.00;;;;;;;;;;10307483;28;20099;-60
2022/12/28 21:27:01;;;;;;;15.45;9.18;;;;;;;;;;10314028;28;20043;-59
2022/12/28 21:32:00;;;;;;;16.08;9.38;;;;;;;;;;10306552;28;20071;-59
2022/12/28 21:37:32;;;;;;;14.65;8.80;;;;;;;;;;10315813;28;20040;-59
2022/12/28 21:42:17;;;;;;;10.65;8.10;;;;;;;;;;10314261;28;20485;-60
2022/12/28 21:47:16;;;;;;;9.45;6.45;;;;;;;;;;10313745;28;20076;-60
2022/12/28 21:52:16;;;;;;;7.57;6.35;;;;;;;;;;10314488;28;20065;-58
2022/12/28 21:57:15;;;;;;;7.22;5.68;;;;;;;;;;10314589;28;20068;-59
2022/12/28 22:07:31;;;;;;;6.95;6.20;;;;;;;;;;10311327;28;20072;-58
2022/12/28 22:12:36;;;;;;;8.30;6.32;;;;;;;;;;10314176;28;20076;-56
2022/12/28 22:17:34;;;;;;;6.32;5.50;;;;;;;;;;10304424;28;20624;-60
2022/12/28 22:22:34;;;;;;;11.90;6.97;;;;;;;;;;10313726;28;20071;-60
2022/12/28 22:27:32;;;;;;;8.02;6.50;;;;;;;;;;10312411;28;20076;-60
2022/12/28 22:32:30;;;;;;;10.55;8.18;;;;;;;;;;10304167;28;20075;-60
2022/12/28 22:37:29;;;;;;;10.20;8.25;;;;;;;;;;10304966;28;20056;-60
2022/12/28 22:42:28;;;;;;;8.48;5.78;;;;;;;;;;10318510;28;20064;-60
2022/12/28 22:47:27;;;;;;;6.80;5.53;;;;;;;;;;10321951;28;20533;-60
2022/12/28 22:52:25;;;;;;;7.93;5.97;;;;;;;;;;10303870;28;20501;-59
2022/12/28 22:57:23;;;;;;;10.02;7.07;;;;;;;;;;10318025;28;20067;-60
2022/12/28 23:02:23;;;;;;;7.68;5.80;;;;;;;;;;10320185;28;20044;-60
2022/12/28 23:07:21;;;;;;;10.15;6.25;;;;;;;;;;10319690;28;20047;-60
2022/12/28 23:12:20;;;;;;;8.23;5.93;;;;;;;;;;10316691;28;20087;-59
2022/12/28 23:17:18;;;;;;;12.45;6.78;;;;;;;;;;10317689;28;20064;-59
2022/12/28 23:27:37;;;;;;;12.48;8.15;;;;;;;;;;10320111;28;20209;-59
2022/12/28 23:32:35;;;;;;;10.40;7.03;;;;;;;;;;10319608;28;20086;-60
2022/12/28 23:37:34;;;;;;;8.43;6.78;;;;;;;;;;10301894;28;20055;-61
2022/12/28 23:42:34;;;;;;;13.85;6.30;;;;;;;;;;10319941;28;20087;-61
2022/12/28 23:47:33;;;;;;;7.60;5.88;;;;;;;;;;10318439;28;20095;-61
2022/12/28 23:52:31;;;;;;;8.18;6.20;;;;;;;;;;10318016;28;20072;-60
2022/12/28 23:57:30;;;;;;;8.13;5.95;;;;;;;;;;10319275;28;20048;-59
